createdAt,value
2018-04-16T00:00:38.396Z,0
2018-04-16T00:01:38.255Z,0
2018-04-16T00:02:38.343Z,0
2018-04-16T00:03:38.311Z,0
2018-04-16T00:04:38.344Z,0
2018-04-16T00:05:38.275Z,0
2018-04-16T00:06:38.391Z,0
2018-04-16T00:07:38.306Z,0
2018-04-16T00:08:38.312Z,0
2018-04-16T00:09:38.343Z,0
2018-04-16T00:10:38.340Z,0
2018-04-16T00:11:38.266Z,0
2018-04-16T00:12:38.305Z,0
2018-04-16T00:13:38.265Z,0
2018-04-16T00:14:38.347Z,0
2018-04-16T00:15:38.312Z,0
2018-04-16T00:16:38.270Z,0
2018-04-16T00:17:38.317Z,0
2018-04-16T00:18:38.347Z,0
2018-04-16T00:19:38.366Z,0
2018-04-16T00:20:38.380Z,0
2018-04-16T00:21:38.308Z,0
2018-04-16T00:22:38.355Z,0
2018-04-16T00:23:38.308Z,0
2018-04-16T00:24:38.344Z,0
2018-04-16T00:25:38.256Z,0
2018-04-16T00:26:38.329Z,0
2018-04-16T00:27:38.372Z,0
2018-04-16T00:28:38.322Z,0
2018-04-16T00:29:38.291Z,0
2018-04-16T00:30:38.312Z,0
2018-04-16T00:31:38.380Z,0
2018-04-16T00:32:38.277Z,0
2018-04-16T00:33:38.351Z,0
2018-04-16T00:34:38.320Z,0
2018-04-16T00:35:38.330Z,0
2018-04-16T00:36:38.358Z,0
2018-04-16T00:37:38.354Z,0
2018-04-16T00:38:38.422Z,0
2018-04-16T00:39:38.353Z,0
2018-04-16T00:40:38.384Z,0
2018-04-16T00:41:38.366Z,0
2018-04-16T00:42:38.268Z,0
2018-04-16T00:43:38.321Z,0
2018-04-16T00:44:38.264Z,0
2018-04-16T00:45:38.324Z,0
2018-04-16T00:46:38.389Z,0
2018-04-16T00:47:38.384Z,0
2018-04-16T00:48:38.371Z,0
2018-04-16T00:49:38.291Z,0
2018-04-16T00:50:38.341Z,0
2018-04-16T00:51:38.388Z,0
2018-04-16T00:52:38.332Z,0
2018-04-16T00:53:38.389Z,0
2018-04-16T00:54:38.369Z,0
2018-04-16T00:55:38.304Z,0
2018-04-16T00:56:38.366Z,0
2018-04-16T00:57:38.286Z,0
2018-04-16T00:58:38.361Z,0
2018-04-16T00:59:38.286Z,0
2018-04-16T01:00:38.360Z,0
2018-04-16T01:01:38.290Z,0
2018-04-16T01:02:38.365Z,0
2018-04-16T01:03:38.311Z,0
2018-04-16T01:04:38.363Z,0
2018-04-16T01:05:38.297Z,0
2018-04-16T01:06:38.366Z,0
2018-04-16T01:07:38.294Z,0
2018-04-16T01:08:38.369Z,0
2018-04-16T01:09:38.301Z,0
2018-04-16T01:10:38.415Z,0
2018-04-16T01:11:38.297Z,0
2018-04-16T01:12:38.368Z,0
2018-04-16T01:13:38.299Z,0
2018-04-16T01:14:38.370Z,0
2018-04-16T01:15:38.300Z,0
2018-04-16T01:16:38.374Z,0
2018-04-16T01:17:38.308Z,0
2018-04-16T01:18:38.300Z,0
2018-04-16T01:19:38.438Z,0
2018-04-16T01:20:38.385Z,0
2018-04-16T01:21:38.288Z,0
2018-04-16T01:22:38.384Z,0
2018-04-16T01:23:38.439Z,0
2018-04-16T01:24:38.414Z,0
2018-04-16T01:25:38.313Z,0
2018-04-16T01:26:38.321Z,0
2018-04-16T01:27:38.414Z,0
2018-04-16T01:28:38.309Z,0
2018-04-16T01:29:38.381Z,0
2018-04-16T01:30:38.312Z,0
2018-04-16T01:31:38.387Z,0
2018-04-16T01:32:38.309Z,0
2018-04-16T01:33:38.382Z,0
2018-04-16T01:34:38.309Z,0
2018-04-16T01:35:38.387Z,0
2018-04-16T01:36:38.390Z,0
2018-04-16T01:37:38.314Z,0
2018-04-16T01:38:38.354Z,0
2018-04-16T01:39:38.324Z,0
2018-04-16T01:40:38.416Z,0
2018-04-16T01:41:38.399Z,0
2018-04-16T01:42:38.373Z,0
2018-04-16T01:43:38.393Z,0
2018-04-16T01:44:38.395Z,0
2018-04-16T01:45:38.383Z,0
2018-04-16T01:46:38.320Z,0
2018-04-16T01:47:38.398Z,0
2018-04-16T01:48:38.329Z,0
2018-04-16T01:49:38.407Z,0
2018-04-16T01:50:38.346Z,0
2018-04-16T01:51:38.405Z,0
2018-04-16T01:52:38.333Z,0
2018-04-16T01:53:38.406Z,0
2018-04-16T01:54:38.411Z,0
2018-04-16T01:55:38.338Z,0
2018-04-16T01:56:38.337Z,0
2018-04-16T01:57:38.410Z,0
2018-04-16T01:58:38.466Z,0
2018-04-16T01:59:38.327Z,0
2018-04-16T02:00:38.469Z,0
2018-04-16T02:01:38.427Z,0
2018-04-16T02:02:38.414Z,0
2018-04-16T02:03:38.428Z,0
2018-04-16T02:04:38.390Z,0
2018-04-16T02:05:38.328Z,0
2018-04-16T02:06:38.472Z,0
2018-04-16T02:07:38.336Z,0
2018-04-16T02:08:38.447Z,0
2018-04-16T02:09:38.375Z,0
2018-04-16T02:10:38.445Z,0
2018-04-16T02:11:38.336Z,0
2018-04-16T02:12:38.444Z,0
2018-04-16T02:13:38.430Z,0
2018-04-16T02:14:38.415Z,0
2018-04-16T02:15:38.440Z,0
2018-04-16T02:16:38.430Z,0
2018-04-16T02:17:38.426Z,0
2018-04-16T02:18:38.335Z,0
2018-04-16T02:19:38.421Z,0
2018-04-16T02:20:38.321Z,0
2018-04-16T02:21:38.501Z,0
2018-04-16T02:22:38.443Z,0
2018-04-16T02:23:38.338Z,0
2018-04-16T02:24:38.353Z,0
2018-04-16T02:25:38.357Z,0
2018-04-16T02:26:38.429Z,0
2018-04-16T02:27:38.398Z,0
2018-04-16T02:28:38.433Z,0
2018-04-16T02:29:38.354Z,0
2018-04-16T02:30:38.356Z,0
2018-04-16T02:31:38.354Z,0
2018-04-16T02:32:38.360Z,0
2018-04-16T02:33:38.435Z,0
2018-04-16T02:34:38.363Z,0
2018-04-16T02:35:38.359Z,0
2018-04-16T02:36:38.360Z,0
2018-04-16T02:37:38.329Z,0
2018-04-16T02:38:38.406Z,0
2018-04-16T02:39:38.404Z,0
2018-04-16T02:40:38.529Z,0
2018-04-16T02:41:38.457Z,0
2018-04-16T02:42:38.457Z,0
2018-04-16T02:43:38.404Z,0
2018-04-16T02:44:38.442Z,0
2018-04-16T02:45:38.434Z,0
2018-04-16T02:46:38.443Z,0
2018-04-16T02:47:38.410Z,0
2018-04-16T02:48:38.358Z,0
2018-04-16T02:49:38.466Z,0
2018-04-16T02:50:38.431Z,0
2018-04-16T02:51:38.365Z,0
2018-04-16T02:52:38.435Z,0
2018-04-16T02:53:38.366Z,0
2018-04-16T02:54:38.433Z,0
2018-04-16T02:55:38.438Z,0
2018-04-16T02:56:38.366Z,0
2018-04-16T02:57:38.443Z,0
2018-04-16T02:58:38.367Z,0
2018-04-16T02:59:38.443Z,0
2018-04-16T03:00:38.391Z,0
2018-04-16T03:01:38.373Z,0
2018-04-16T03:02:38.439Z,0
2018-04-16T03:03:38.444Z,0
2018-04-16T03:04:38.366Z,0
2018-04-16T03:05:38.440Z,0
2018-04-16T03:06:38.365Z,0
2018-04-16T03:07:38.456Z,0
2018-04-16T03:08:38.399Z,0
2018-04-16T03:09:38.381Z,0
2018-04-16T03:10:38.455Z,0
2018-04-16T03:11:38.462Z,0
2018-04-16T03:12:38.350Z,0
2018-04-16T03:13:38.486Z,0
2018-04-16T03:14:38.350Z,0
2018-04-16T03:15:38.387Z,0
2018-04-16T03:16:38.354Z,0
2018-04-16T03:17:38.461Z,0
2018-04-16T03:18:38.404Z,0
2018-04-16T03:19:38.387Z,0
2018-04-16T03:20:38.405Z,0
2018-04-16T03:21:38.465Z,0
2018-04-16T03:22:38.405Z,0
2018-04-16T03:23:38.467Z,0
2018-04-16T03:24:38.466Z,0
2018-04-16T03:25:38.405Z,0
2018-04-16T03:26:38.394Z,0
2018-04-16T03:27:38.355Z,0
2018-04-16T03:28:38.460Z,0
2018-04-16T03:29:38.460Z,0
2018-04-16T03:30:38.432Z,0
2018-04-16T03:31:38.428Z,0
2018-04-16T03:32:38.370Z,0
2018-04-16T03:33:38.473Z,0
2018-04-16T03:34:38.445Z,0
2018-04-16T03:35:38.410Z,0
2018-04-16T03:36:38.467Z,0
2018-04-16T03:37:38.389Z,0
2018-04-16T03:38:38.412Z,0
2018-04-16T03:39:38.466Z,0
2018-04-16T03:40:38.398Z,0
2018-04-16T03:41:38.398Z,0
2018-04-16T03:42:38.467Z,0
2018-04-16T03:43:38.393Z,0
2018-04-16T03:44:38.468Z,0
2018-04-16T03:45:38.427Z,0
2018-04-16T03:46:38.424Z,0
2018-04-16T03:47:38.467Z,0
2018-04-16T03:48:38.479Z,0
2018-04-16T03:49:38.484Z,0
2018-04-16T03:50:38.484Z,0
2018-04-16T03:51:38.480Z,0
2018-04-16T03:52:38.484Z,0
2018-04-16T03:53:38.409Z,0
2018-04-16T03:54:38.416Z,0
2018-04-16T03:55:38.417Z,0
2018-04-16T03:56:38.509Z,0
2018-04-16T03:57:38.411Z,0
2018-04-16T03:58:38.479Z,0
2018-04-16T03:59:38.388Z,0
2018-04-16T04:00:38.483Z,0
2018-04-16T04:01:38.480Z,0
2018-04-16T04:02:38.557Z,0
2018-04-16T04:03:38.542Z,0
2018-04-16T04:04:38.509Z,0
2018-04-16T04:05:38.459Z,0
2018-04-16T04:06:38.425Z,0
2018-04-16T04:07:38.519Z,0
2018-04-16T04:08:38.512Z,0
2018-04-16T04:09:38.465Z,0
2018-04-16T04:10:38.489Z,0
2018-04-16T04:11:38.485Z,0
2018-04-16T04:12:38.409Z,0
2018-04-16T04:13:38.462Z,0
2018-04-16T04:14:38.530Z,5
2018-04-16T04:15:38.411Z,5
2018-04-16T04:16:38.461Z,5
2018-04-16T04:17:38.461Z,5
2018-04-16T04:18:38.462Z,5
2018-04-16T04:19:38.433Z,5
2018-04-16T04:20:38.521Z,11
2018-04-16T04:21:38.465Z,11
2018-04-16T04:22:38.468Z,11
2018-04-16T04:23:38.541Z,11
2018-04-16T04:24:38.414Z,16
2018-04-16T04:25:38.495Z,16
2018-04-16T04:26:38.534Z,16
2018-04-16T04:27:38.468Z,16
2018-04-16T04:28:38.475Z,22
2018-04-16T04:29:38.425Z,22
2018-04-16T04:30:38.437Z,22
2018-04-16T04:31:38.507Z,22
2018-04-16T04:32:38.539Z,28
2018-04-16T04:33:38.562Z,28
2018-04-16T04:34:38.469Z,33
2018-04-16T04:35:38.432Z,33
2018-04-16T04:36:38.509Z,39
2018-04-16T04:37:38.571Z,39
2018-04-16T04:38:38.451Z,45
2018-04-16T04:39:38.512Z,45
2018-04-16T04:40:38.452Z,50
2018-04-16T04:41:38.518Z,56
2018-04-16T04:42:38.516Z,56
2018-04-16T04:43:38.446Z,61
2018-04-16T04:44:38.443Z,67
2018-04-16T04:45:38.441Z,73
2018-04-16T04:46:38.526Z,78
2018-04-16T04:47:38.410Z,84
2018-04-16T04:48:38.453Z,90
2018-04-16T04:49:38.407Z,95
2018-04-16T04:50:38.411Z,101
2018-04-16T04:51:38.421Z,101
2018-04-16T04:52:38.452Z,106
2018-04-16T04:53:38.411Z,112
2018-04-16T04:54:38.500Z,118
2018-04-16T04:55:38.423Z,123
2018-04-16T04:56:38.500Z,129
2018-04-16T04:57:38.449Z,129
2018-04-16T04:58:38.561Z,135
2018-04-16T04:59:38.546Z,135
2018-04-16T05:00:38.524Z,135
2018-04-16T05:01:38.450Z,140
2018-04-16T05:02:38.529Z,140
2018-04-16T05:03:38.531Z,146
2018-04-16T05:04:38.549Z,146
2018-04-16T05:05:38.543Z,151
2018-04-16T05:06:38.555Z,151
2018-04-16T05:07:38.505Z,157
2018-04-16T05:08:38.473Z,157
2018-04-16T05:09:38.442Z,163
2018-04-16T05:10:38.432Z,163
2018-04-16T05:11:38.385Z,168
2018-04-16T05:12:38.484Z,174
2018-04-16T05:13:38.434Z,180
2018-04-16T05:14:38.479Z,185
2018-04-16T05:15:38.478Z,191
2018-04-16T05:16:38.387Z,196
2018-04-16T05:17:38.485Z,202
2018-04-16T05:18:38.532Z,208
2018-04-16T05:19:38.493Z,219
2018-04-16T05:20:38.521Z,225
2018-04-16T05:21:38.438Z,230
2018-04-16T05:22:38.519Z,241
2018-04-16T05:23:38.572Z,247
2018-04-16T05:24:38.523Z,258
2018-04-16T05:25:38.437Z,264
2018-04-16T05:26:38.483Z,275
2018-04-16T05:27:38.577Z,281
2018-04-16T05:28:38.526Z,286
2018-04-16T05:29:38.530Z,298
2018-04-16T05:30:38.456Z,303
2018-04-16T05:31:38.444Z,303
2018-04-16T05:32:38.529Z,315
2018-04-16T05:33:38.533Z,320
2018-04-16T05:34:38.449Z,326
2018-04-16T05:35:38.536Z,331
2018-04-16T05:36:38.457Z,337
2018-04-16T05:37:38.537Z,343
2018-04-16T05:38:38.508Z,348
2018-04-16T05:39:38.546Z,354
2018-04-16T05:40:38.514Z,365
2018-04-16T05:41:38.584Z,376
2018-04-16T05:42:38.579Z,376
2018-04-16T05:43:38.542Z,382
2018-04-16T05:44:38.539Z,388
2018-04-16T05:45:38.552Z,399
2018-04-16T05:46:38.508Z,410
2018-04-16T05:47:38.548Z,416
2018-04-16T05:48:38.488Z,416
2018-04-16T05:49:38.506Z,410
2018-04-16T05:50:38.544Z,421
2018-04-16T05:51:38.539Z,427
2018-04-16T05:52:38.423Z,433
2018-04-16T05:53:38.543Z,438
2018-04-16T05:54:38.543Z,438
2018-04-16T05:55:38.548Z,427
2018-04-16T05:56:38.543Z,433
2018-04-16T05:57:38.460Z,433
2018-04-16T05:58:38.550Z,444
2018-04-16T05:59:38.515Z,472
2018-04-16T06:00:38.490Z,483
2018-04-16T06:01:38.460Z,579
2018-04-16T06:02:38.466Z,506
2018-04-16T06:03:38.553Z,517
2018-04-16T06:04:38.479Z,511
2018-04-16T06:05:38.511Z,495
2018-04-16T06:06:38.526Z,646
2018-04-16T06:07:38.467Z,568
2018-04-16T06:08:38.595Z,601
2018-04-16T06:09:38.570Z,506
2018-04-16T06:10:38.525Z,540
2018-04-16T06:11:38.491Z,517
2018-04-16T06:12:38.526Z,540
2018-04-16T06:13:38.623Z,528
2018-04-16T06:14:38.507Z,596
2018-04-16T06:15:38.507Z,798
2018-04-16T06:16:38.503Z,573
2018-04-16T06:17:38.527Z,545
2018-04-16T06:18:38.589Z,573
2018-04-16T06:19:38.542Z,590
2018-04-16T06:20:38.507Z,573
2018-04-16T06:21:38.493Z,585
2018-04-16T06:22:38.545Z,641
2018-04-16T06:23:38.595Z,669
2018-04-16T06:24:38.534Z,641
2018-04-16T06:25:38.542Z,686
2018-04-16T06:26:38.572Z,680
2018-04-16T06:27:38.550Z,635
2018-04-16T06:28:38.600Z,635
2018-04-16T06:29:38.584Z,641
2018-04-16T06:30:38.600Z,652
2018-04-16T06:31:38.498Z,675
2018-04-16T06:32:38.512Z,675
2018-04-16T06:33:38.479Z,703
2018-04-16T06:34:38.493Z,731
2018-04-16T06:35:38.584Z,736
2018-04-16T06:36:38.634Z,753
2018-04-16T06:37:38.504Z,776
2018-04-16T06:38:38.518Z,770
2018-04-16T06:39:38.554Z,978
2018-04-16T06:40:38.455Z,950
2018-04-16T06:41:38.544Z,781
2018-04-16T06:42:38.482Z,798
2018-04-16T06:43:38.535Z,742
2018-04-16T06:44:38.562Z,720
2018-04-16T06:45:38.564Z,708
2018-04-16T06:46:38.539Z,697
2018-04-16T06:47:38.588Z,703
2018-04-16T06:48:38.567Z,826
2018-04-16T06:49:38.478Z,720
2018-04-16T06:50:38.561Z,708
2018-04-16T06:51:38.519Z,731
2018-04-16T06:52:38.639Z,753
2018-04-16T06:53:38.463Z,832
2018-04-16T06:54:38.573Z,860
2018-04-16T06:55:38.490Z,860
2018-04-16T06:56:38.575Z,888
2018-04-16T06:57:38.487Z,950
2018-04-16T06:58:38.603Z,1051
2018-04-16T06:59:38.590Z,1237
2018-04-16T07:00:38.523Z,1248
2018-04-16T07:01:38.484Z,1119
2018-04-16T07:02:38.525Z,1018
2018-04-16T07:03:38.598Z,995
2018-04-16T07:04:38.529Z,1136
2018-04-16T07:05:38.601Z,1046
2018-04-16T07:06:38.526Z,1153
2018-04-16T07:07:38.529Z,1006
2018-04-16T07:08:38.558Z,945
2018-04-16T07:09:38.610Z,956
2018-04-16T07:10:38.625Z,1220
2018-04-16T07:11:38.502Z,995
2018-04-16T07:12:38.624Z,905
2018-04-16T07:13:38.575Z,843
2018-04-16T07:14:38.507Z,810
2018-04-16T07:15:38.617Z,826
2018-04-16T07:16:38.657Z,860
2018-04-16T07:17:38.574Z,905
2018-04-16T07:18:38.561Z,950
2018-04-16T07:19:38.633Z,939
2018-04-16T07:20:38.602Z,939
2018-04-16T07:21:38.630Z,950
2018-04-16T07:22:38.570Z,984
2018-04-16T07:23:38.573Z,1012
2018-04-16T07:24:38.608Z,1057
2018-04-16T07:25:38.542Z,1085
2018-04-16T07:26:38.649Z,1119
2018-04-16T07:27:38.544Z,1215
2018-04-16T07:28:38.531Z,1215
2018-04-16T07:29:38.579Z,1170
2018-04-16T07:30:38.647Z,1153
2018-04-16T07:31:38.583Z,1136
2018-04-16T07:32:38.623Z,1108
2018-04-16T07:33:38.593Z,1113
2018-04-16T07:34:38.554Z,1147
2018-04-16T07:35:38.646Z,1186
2018-04-16T07:36:38.652Z,1243
2018-04-16T07:37:38.582Z,1265
2018-04-16T07:38:38.543Z,1355
2018-04-16T07:39:38.546Z,1254
2018-04-16T07:40:38.548Z,1260
2018-04-16T07:41:38.624Z,1209
2018-04-16T07:42:38.572Z,1231
2018-04-16T07:43:38.517Z,1310
2018-04-16T07:44:38.559Z,1305
2018-04-16T07:45:38.552Z,1293
2018-04-16T07:46:38.551Z,1389
2018-04-16T07:47:38.625Z,1299
2018-04-16T07:48:38.551Z,1327
2018-04-16T07:49:38.589Z,1406
2018-04-16T07:50:38.547Z,1395
2018-04-16T07:51:38.620Z,1479
2018-04-16T07:52:38.592Z,1726
2018-04-16T07:53:38.652Z,1726
2018-04-16T07:54:38.690Z,1535
2018-04-16T07:55:38.596Z,1490
2018-04-16T07:56:38.664Z,1507
2018-04-16T07:57:38.611Z,1603
2018-04-16T07:58:38.668Z,1760
2018-04-16T07:59:38.551Z,1569
2018-04-16T08:00:38.659Z,1569
2018-04-16T08:01:38.558Z,1575
2018-04-16T08:02:38.654Z,1501
2018-04-16T08:03:38.660Z,1580
2018-04-16T08:04:38.597Z,1665
2018-04-16T08:05:38.652Z,1681
2018-04-16T08:06:38.670Z,1631
2018-04-16T08:07:38.692Z,1580
2018-04-16T08:08:38.561Z,1642
2018-04-16T08:09:38.636Z,1901
2018-04-16T08:10:38.714Z,1996
2018-04-16T08:11:38.637Z,2103
2018-04-16T08:12:38.556Z,1906
2018-04-16T08:13:38.541Z,1805
2018-04-16T08:14:38.560Z,1845
2018-04-16T08:15:38.637Z,1788
2018-04-16T08:16:38.675Z,2233
2018-04-16T08:17:38.663Z,2638
2018-04-16T08:18:38.675Z,2193
2018-04-16T08:19:38.563Z,2008
2018-04-16T08:20:38.581Z,1951
2018-04-16T08:21:38.550Z,1980
2018-04-16T08:22:38.675Z,1890
2018-04-16T08:23:38.620Z,2002
2018-04-16T08:24:38.607Z,2120
2018-04-16T08:25:38.613Z,2328
2018-04-16T08:26:38.606Z,2373
2018-04-16T08:27:38.648Z,2435
2018-04-16T08:28:38.629Z,2688
2018-04-16T08:29:38.691Z,2790
2018-04-16T08:30:38.678Z,2514
2018-04-16T08:31:38.676Z,2396
2018-04-16T08:32:38.679Z,2238
2018-04-16T08:33:38.567Z,2047
2018-04-16T08:34:38.557Z,2002
2018-04-16T08:35:38.574Z,2058
2018-04-16T08:36:38.692Z,2081
2018-04-16T08:37:38.691Z,2300
2018-04-16T08:38:38.693Z,2407
2018-04-16T08:39:38.550Z,2458
2018-04-16T08:40:38.585Z,2700
2018-04-16T08:41:38.617Z,2795
2018-04-16T08:42:38.552Z,2632
2018-04-16T08:43:38.643Z,2756
2018-04-16T08:44:38.551Z,2739
2018-04-16T08:45:38.559Z,2514
2018-04-16T08:46:38.525Z,2615
2018-04-16T08:47:38.555Z,2610
2018-04-16T08:48:38.554Z,2435
2018-04-16T08:49:38.576Z,2446
2018-04-16T08:50:38.604Z,2469
2018-04-16T08:51:38.659Z,2767
2018-04-16T08:52:38.677Z,2570
2018-04-16T08:53:38.670Z,2553
2018-04-16T08:54:38.623Z,2520
2018-04-16T08:55:38.661Z,2767
2018-04-16T08:56:38.653Z,2958
2018-04-16T08:57:38.615Z,2806
2018-04-16T08:58:38.661Z,2632
2018-04-16T08:59:38.610Z,2469
2018-04-16T09:00:38.621Z,2356
2018-04-16T09:01:38.622Z,2491
2018-04-16T09:02:38.666Z,2435
2018-04-16T09:03:38.604Z,2469
2018-04-16T09:04:38.677Z,2486
2018-04-16T09:05:38.604Z,2565
2018-04-16T09:06:38.601Z,2604
2018-04-16T09:07:38.675Z,2643
2018-04-16T09:08:38.603Z,2570
2018-04-16T09:09:38.621Z,2750
2018-04-16T09:10:38.620Z,3133
2018-04-16T09:11:38.574Z,2964
2018-04-16T09:12:38.551Z,3200
2018-04-16T09:13:38.643Z,3026
2018-04-16T09:14:38.582Z,3060
2018-04-16T09:15:38.585Z,3026
2018-04-16T09:16:38.533Z,2913
2018-04-16T09:17:38.625Z,3082
2018-04-16T09:18:38.536Z,3335
2018-04-16T09:19:38.644Z,3256
2018-04-16T09:20:38.759Z,3324
2018-04-16T09:21:38.662Z,3571
2018-04-16T09:22:38.608Z,3571
2018-04-16T09:23:38.698Z,3532
2018-04-16T09:24:38.652Z,3645
2018-04-16T09:25:38.719Z,3577
2018-04-16T09:26:38.709Z,3538
2018-04-16T09:27:38.684Z,3678
2018-04-16T09:28:38.679Z,3735
2018-04-16T09:29:38.595Z,3735
2018-04-16T09:30:38.729Z,3796
2018-04-16T09:31:38.662Z,3841
2018-04-16T09:32:38.695Z,3785
2018-04-16T09:33:38.726Z,3718
2018-04-16T09:34:38.765Z,3718
2018-04-16T09:35:38.714Z,3566
2018-04-16T09:36:38.721Z,3538
2018-04-16T09:37:38.594Z,3436
2018-04-16T09:38:38.730Z,3459
2018-04-16T09:39:38.656Z,3301
2018-04-16T09:40:38.624Z,3375
2018-04-16T09:41:38.708Z,3307
2018-04-16T09:42:38.697Z,3313
2018-04-16T09:43:38.628Z,3228
2018-04-16T09:44:38.581Z,3234
2018-04-16T09:45:38.708Z,3487
2018-04-16T09:46:38.694Z,3436
2018-04-16T09:47:38.629Z,3273
2018-04-16T09:48:38.702Z,3223
2018-04-16T09:49:38.715Z,3178
2018-04-16T09:50:38.671Z,2981
2018-04-16T09:51:38.596Z,3082
2018-04-16T09:52:38.660Z,3071
2018-04-16T09:53:38.679Z,3155
2018-04-16T09:54:38.658Z,3251
2018-04-16T09:55:38.735Z,3256
2018-04-16T09:56:38.726Z,3133
2018-04-16T09:57:38.674Z,3054
2018-04-16T09:58:38.679Z,3020
2018-04-16T09:59:38.712Z,2964
2018-04-16T10:00:38.644Z,3183
2018-04-16T10:01:38.711Z,3403
2018-04-16T10:02:38.638Z,3504
2018-04-16T10:03:38.710Z,3740
2018-04-16T10:04:38.709Z,3768
2018-04-16T10:05:38.648Z,3886
2018-04-16T10:06:38.641Z,4308
2018-04-16T10:07:38.597Z,4353
2018-04-16T10:08:38.712Z,4348
2018-04-16T10:09:38.741Z,4010
2018-04-16T10:10:38.711Z,3903
2018-04-16T10:11:38.688Z,3723
2018-04-16T10:12:38.731Z,3645
2018-04-16T10:13:38.690Z,3622
2018-04-16T10:14:38.718Z,3622
2018-04-16T10:15:38.712Z,3695
2018-04-16T10:16:38.689Z,3718
2018-04-16T10:17:38.716Z,3718
2018-04-16T10:18:38.681Z,3633
2018-04-16T10:19:38.649Z,3560
2018-04-16T10:20:38.721Z,3735
2018-04-16T10:21:38.651Z,3780
2018-04-16T10:22:38.720Z,3633
2018-04-16T10:23:38.721Z,3577
2018-04-16T10:24:38.651Z,3661
2018-04-16T10:25:38.722Z,3999
2018-04-16T10:26:38.620Z,4106
2018-04-16T10:27:38.657Z,3971
2018-04-16T10:28:38.731Z,4331
2018-04-16T10:29:38.656Z,4308
2018-04-16T10:30:38.725Z,4584
2018-04-16T10:31:38.730Z,4455
2018-04-16T10:32:38.660Z,4258
2018-04-16T10:33:38.663Z,4494
2018-04-16T10:34:38.664Z,4545
2018-04-16T10:35:38.707Z,4027
2018-04-16T10:36:38.655Z,4595
2018-04-16T10:37:38.737Z,4280
2018-04-16T10:38:38.668Z,3819
2018-04-16T10:39:38.707Z,4567
2018-04-16T10:40:38.730Z,4083
2018-04-16T10:41:38.757Z,4438
2018-04-16T10:42:38.718Z,4404
2018-04-16T10:43:38.711Z,4387
2018-04-16T10:44:38.741Z,4826
2018-04-16T10:45:38.734Z,4449
2018-04-16T10:46:38.779Z,4826
2018-04-16T10:47:38.639Z,4331
2018-04-16T10:48:38.658Z,4370
2018-04-16T10:49:38.759Z,4567
2018-04-16T10:50:38.739Z,2092
2018-04-16T10:51:38.700Z,1923
2018-04-16T10:52:38.760Z,1951
2018-04-16T10:53:38.736Z,1957
2018-04-16T10:54:38.711Z,1991
2018-04-16T10:55:38.721Z,2047
2018-04-16T10:56:38.764Z,2683
2018-04-16T10:57:38.736Z,4483
2018-04-16T10:58:38.713Z,1833
2018-04-16T10:59:38.732Z,1693
2018-04-16T11:00:38.646Z,1642
2018-04-16T11:01:38.737Z,1614
2018-04-16T11:02:38.698Z,1625
2018-04-16T11:03:38.650Z,1670
2018-04-16T11:04:38.685Z,1665
2018-04-16T11:05:38.744Z,1620
2018-04-16T11:06:38.674Z,1580
2018-04-16T11:07:38.653Z,1625
2018-04-16T11:08:38.742Z,1721
2018-04-16T11:09:38.703Z,4393
2018-04-16T11:10:38.673Z,4500
2018-04-16T11:11:38.707Z,4471
2018-04-16T11:12:38.775Z,4342
2018-04-16T11:13:38.790Z,4471
2018-04-16T11:14:38.706Z,4556
2018-04-16T11:15:38.719Z,1963
2018-04-16T11:16:38.795Z,1833
2018-04-16T11:17:38.725Z,1771
2018-04-16T11:18:38.755Z,1721
2018-04-16T11:19:38.752Z,1738
2018-04-16T11:20:38.688Z,1743
2018-04-16T11:21:38.689Z,1687
2018-04-16T11:22:38.757Z,1642
2018-04-16T11:23:38.686Z,1681
2018-04-16T11:24:38.760Z,4252
2018-04-16T11:25:38.693Z,4213
2018-04-16T11:26:38.705Z,5158
2018-04-16T11:27:38.759Z,5208
2018-04-16T11:28:38.691Z,3386
2018-04-16T11:29:38.753Z,1923
2018-04-16T11:30:38.669Z,1811
2018-04-16T11:31:38.631Z,1665
2018-04-16T11:32:38.646Z,1546
2018-04-16T11:33:38.644Z,1468
2018-04-16T11:34:38.715Z,1445
2018-04-16T11:35:38.755Z,1530
2018-04-16T11:36:38.764Z,1603
2018-04-16T11:37:38.667Z,1828
2018-04-16T11:38:38.667Z,2666
2018-04-16T11:39:38.775Z,5349
2018-04-16T11:40:38.627Z,5461
2018-04-16T11:41:38.634Z,5636
2018-04-16T11:42:38.755Z,5422
2018-04-16T11:43:38.661Z,5152
2018-04-16T11:44:38.730Z,3931
2018-04-16T11:45:38.772Z,2233
2018-04-16T11:46:38.716Z,2137
2018-04-16T11:47:38.758Z,3408
2018-04-16T11:48:38.665Z,2435
2018-04-16T11:49:38.744Z,2244
2018-04-16T11:50:38.742Z,2964
2018-04-16T11:51:38.741Z,4415
2018-04-16T11:52:38.743Z,5051
2018-04-16T11:53:38.714Z,5169
2018-04-16T11:54:38.730Z,5203
2018-04-16T11:55:38.740Z,5180
2018-04-16T11:56:38.738Z,5000
2018-04-16T11:57:38.814Z,4837
2018-04-16T11:58:38.742Z,4809
2018-04-16T11:59:38.783Z,4854
2018-04-16T12:00:38.780Z,4848
2018-04-16T12:01:38.713Z,4764
2018-04-16T12:02:38.785Z,4736
2018-04-16T12:03:38.717Z,4786
2018-04-16T12:04:38.747Z,4758
2018-04-16T12:05:38.784Z,4781
2018-04-16T12:06:38.721Z,4786
2018-04-16T12:07:38.786Z,4815
2018-04-16T12:08:38.720Z,4792
2018-04-16T12:09:38.726Z,4843
2018-04-16T12:10:38.817Z,4916
2018-04-16T12:11:38.740Z,4899
2018-04-16T12:12:38.806Z,4809
2018-04-16T12:13:38.763Z,4578
2018-04-16T12:14:38.772Z,4584
2018-04-16T12:15:38.788Z,4657
2018-04-16T12:16:38.843Z,4680
2018-04-16T12:17:38.713Z,4730
2018-04-16T12:18:38.757Z,4798
2018-04-16T12:19:38.770Z,4516
2018-04-16T12:20:38.826Z,4758
2018-04-16T12:21:38.697Z,4955
2018-04-16T12:22:38.763Z,4854
2018-04-16T12:23:38.762Z,4916
2018-04-16T12:25:38.834Z,4831
2018-04-16T12:26:38.813Z,4820
2018-04-16T12:27:38.820Z,4882
2018-04-16T12:28:38.827Z,4893
2018-04-16T12:29:38.687Z,4938
2018-04-16T12:30:38.707Z,4674
2018-04-16T12:31:38.758Z,4539
2018-04-16T12:32:38.793Z,4612
2018-04-16T12:33:38.735Z,2244
2018-04-16T12:34:38.735Z,1906
2018-04-16T12:35:38.805Z,1890
2018-04-16T12:36:38.797Z,4691
2018-04-16T12:37:38.675Z,4837
2018-04-16T12:38:38.692Z,4820
2018-04-16T12:39:38.878Z,4775
2018-04-16T12:40:38.849Z,4719
2018-04-16T12:41:38.807Z,4601
2018-04-16T12:42:38.739Z,4528
2018-04-16T12:43:38.829Z,3954
2018-04-16T12:44:38.812Z,4218
2018-04-16T12:45:38.745Z,4162
2018-04-16T12:46:38.742Z,4325
2018-04-16T12:47:38.812Z,4280
2018-04-16T12:48:38.814Z,4246
2018-04-16T12:49:38.845Z,2334
2018-04-16T12:50:38.834Z,1828
2018-04-16T12:51:38.832Z,4100
2018-04-16T12:52:38.780Z,1963
2018-04-16T12:53:38.733Z,3718
2018-04-16T12:54:38.850Z,4325
2018-04-16T12:55:38.721Z,4145
2018-04-16T12:56:38.782Z,4213
2018-04-16T12:57:38.843Z,4196
2018-04-16T12:58:38.833Z,3937
2018-04-16T12:59:38.717Z,4134
2018-04-16T13:00:38.856Z,4365
2018-04-16T13:01:38.795Z,4201
2018-04-16T13:02:38.796Z,4258
2018-04-16T13:03:38.838Z,4269
2018-04-16T13:04:38.846Z,4314
2018-04-16T13:05:38.843Z,4246
2018-04-16T13:06:38.763Z,4246
2018-04-16T13:07:38.821Z,4230
2018-04-16T13:08:38.804Z,4275
2018-04-16T13:09:38.728Z,4336
2018-04-16T13:10:38.729Z,4246
2018-04-16T13:11:38.796Z,4320
2018-04-16T13:12:38.795Z,3988
2018-04-16T13:13:38.805Z,1985
2018-04-16T13:14:38.913Z,4111
2018-04-16T13:15:38.854Z,4123
2018-04-16T13:16:38.854Z,4140
2018-04-16T13:17:38.847Z,4196
2018-04-16T13:18:38.845Z,4095
2018-04-16T13:19:38.827Z,4066
2018-04-16T13:20:38.763Z,3920
2018-04-16T13:21:38.765Z,3943
2018-04-16T13:22:38.770Z,3886
2018-04-16T13:23:38.767Z,3481
2018-04-16T13:24:38.838Z,1704
2018-04-16T13:25:38.766Z,1597
2018-04-16T13:26:38.848Z,1631
2018-04-16T13:27:38.764Z,3307
2018-04-16T13:28:38.770Z,3476
2018-04-16T13:29:38.810Z,3211
2018-04-16T13:30:38.743Z,1957
2018-04-16T13:31:38.874Z,3639
2018-04-16T13:32:38.804Z,3690
2018-04-16T13:33:38.860Z,3650
2018-04-16T13:34:38.831Z,3571
2018-04-16T13:35:38.740Z,3543
2018-04-16T13:36:38.734Z,2452
2018-04-16T13:37:38.869Z,1620
2018-04-16T13:38:38.801Z,1541
2018-04-16T13:39:38.821Z,1530
2018-04-16T13:40:38.812Z,1541
2018-04-16T13:41:38.837Z,1867
2018-04-16T13:42:38.866Z,3645
2018-04-16T13:43:38.861Z,3746
2018-04-16T13:44:38.823Z,3774
2018-04-16T13:45:38.878Z,3813
2018-04-16T13:46:38.814Z,3763
2018-04-16T13:47:38.811Z,3729
2018-04-16T13:48:38.844Z,3650
2018-04-16T13:49:38.735Z,3526
2018-04-16T13:50:38.912Z,3414
2018-04-16T13:51:38.842Z,3268
2018-04-16T13:52:38.786Z,3144